Station Historical Data
Daily Summary for January 6, 2017 Units:  Both    English   Metric
« Previous Day
Next Day »
Daily Weekly Monthly Yearly Custom
  High: Low: Average:
Temperature: 18.9 °F /  -7.3 °C 5.8 °F /  -14.6 °C 12.2 °F /  -11 °C
Dew Point: 7.4 °F /  -13.7 °C -1.3 °F /  -18.5 °C 3.1 °F /  -16.1 °C
Humidity: 77% 54% 67%
Wind Speed: 16.0mph /  25.7km/h - 4.1mph /  6.6km/h
Wind Gust: 21.0mph /  33.8km/h - -
Wind- - West
Pressure: 30.34 in /  1027.3 hPa 30.00 in /  1015.8 hPa -
Precipitation: 0.00 in /  0 mm    
Historical Graphs
 
 
Tabular Data for January 6, 2017
Time Temperature Dew Point Pressure Wind Wind Speed Wind Gust Humidity Rainfall Rate (Hourly)
00:04 13.7 °F /  -10.2 °C 6.6 °F /  -14.1 °C 30.00in /  1015.8hPa SW 5.0mph /  8km/h 8.0mph /  12.9km/h 73% 0.00in /  0mm
00:09 13.5 °F /  -10.3 °C 6.5 °F /  -14.2 °C 30.00in /  1015.8hPa West 4.0mph /  6.4km/h 9.0mph /  14.5km/h 73% 0.00in /  0mm
00:14 13.4 °F /  -10.3 °C 6.1 °F /  -14.4 °C 30.00in /  1015.8hPa West 5.0mph /  8km/h 12.0mph /  19.3km/h 72% 0.00in /  0mm
00:19 13.2 °F /  -10.4 °C 5.9 °F /  -14.5 °C 30.00in /  1015.8hPa West 6.0mph /  9.7km/h 12.0mph /  19.3km/h 72% 0.00in /  0mm
00:24 13.2 °F /  -10.4 °C 5.9 °F /  -14.5 °C 30.01in /  1016.1hPa West 5.0mph /  8km/h 11.0mph /  17.7km/h 72% 0.00in /  0mm
00:29 13.0 °F /  -10.6 °C 5.7 °F /  -14.6 °C 30.01in /  1016.1hPa West 5.0mph /  8km/h 9.0mph /  14.5km/h 72% 0.00in /  0mm
00:34 12.8 °F /  -10.7 °C 5.5 °F /  -14.7 °C 30.01in /  1016.1hPa West 5.0mph /  8km/h 10.0mph /  16.1km/h 72% 0.00in /  0mm
00:39 12.8 °F /  -10.7 °C 5.8 °F /  -14.6 °C 30.01in /  1016.1hPa West 8.0mph /  12.9km/h 9.0mph /  14.5km/h 73% 0.00in /  0mm
00:44 12.7 °F /  -10.7 °C 5.7 °F /  -14.6 °C 30.01in /  1016.1hPa WNW 3.0mph /  4.8km/h 9.0mph /  14.5km/h 73% 0.00in /  0mm
00:49 12.6 °F /  -10.8 °C 5.3 °F /  -14.8 °C 30.01in /  1016.1hPa West 2.0mph /  3.2km/h 8.0mph /  12.9km/h 72% 0.00in /  0mm
00:54 12.5 °F /  -10.8 °C 5.2 °F /  -14.9 °C 30.01in /  1016.1hPa WNW 6.0mph /  9.7km/h 15.0mph /  24.1km/h 72% 0.00in /  0mm
00:59 12.4 °F /  -10.9 °C 5.1 °F /  -14.9 °C 30.01in /  1016.1hPa WNW 4.0mph /  6.4km/h 12.0mph /  19.3km/h 72% 0.00in /  0mm
01:04 12.4 °F /  -10.9 °C 5.1 °F /  -14.9 °C 30.01in /  1016.1hPa West 7.0mph /  11.3km/h 13.0mph /  20.9km/h 72% 0.00in /  0mm
01:09 12.3 °F /  -10.9 °C 5.0 °F /  -15 °C 30.01in /  1016.1hPa West 7.0mph /  11.3km/h 12.0mph /  19.3km/h 72% 0.00in /  0mm
01:14 12.2 °F /  -11 °C 4.9 °F /  -15.1 °C 30.01in /  1016.1hPa West 5.0mph /  8km/h 12.0mph /  19.3km/h 72% 0.00in /  0mm
01:19 12.1 °F /  -11.1 °C 4.8 °F /  -15.1 °C 30.01in /  1016.1hPa West 5.0mph /  8km/h 9.0mph /  14.5km/h 72% 0.00in /  0mm
01:24 11.9 °F /  -11.2 °C 4.6 °F /  -15.2 °C 30.01in /  1016.1hPa West 5.0mph /  8km/h 9.0mph /  14.5km/h 72% 0.00in /  0mm
01:29 11.8 °F /  -11.2 °C 4.5 °F /  -15.3 °C 30.01in /  1016.1hPa West 4.0mph /  6.4km/h 9.0mph /  14.5km/h 72% 0.00in /  0mm
01:34 11.6 °F /  -11.3 °C 4.3 °F /  -15.4 °C 30.00in /  1015.8hPa WNW 3.0mph /  4.8km/h 11.0mph /  17.7km/h 72% 0.00in /  0mm
01:39 11.5 °F /  -11.4 °C 4.2 °F /  -15.4 °C 30.00in /  1015.8hPa NW 6.0mph /  9.7km/h 10.0mph /  16.1km/h 72% 0.00in /  0mm
01:44 11.4 °F /  -11.4 °C 4.1 °F /  -15.5 °C 30.01in /  1016.1hPa WNW 2.0mph /  3.2km/h 7.0mph /  11.3km/h 72% 0.00in /  0mm
01:49 11.2 °F /  -11.6 °C 3.9 °F /  -15.6 °C 30.01in /  1016.1hPa WSW 4.0mph /  6.4km/h 8.0mph /  12.9km/h 72% 0.00in /  0mm
01:54 11.0 °F /  -11.7 °C 4.0 °F /  -15.6 °C 30.01in /  1016.1hPa West 4.0mph /  6.4km/h 8.0mph /  12.9km/h 73% 0.00in /  0mm
01:59 10.8 °F /  -11.8 °C 3.8 °F /  -15.7 °C 30.01in /  1016.1hPa West 2.0mph /  3.2km/h 7.0mph /  11.3km/h 73% 0.00in /  0mm
02:04 10.7 °F /  -11.8 °C 3.7 °F /  -15.7 °C 30.01in /  1016.1hPa West 5.0mph /  8km/h 8.0mph /  12.9km/h 73% 0.00in /  0mm
02:09 10.6 °F /  -11.9 °C 3.6 °F /  -15.8 °C 30.01in /  1016.1hPa West 4.0mph /  6.4km/h 8.0mph /  12.9km/h 73% 0.00in /  0mm
02:14 10.4 °F /  -12 °C 3.5 °F /  -15.8 °C 30.01in /  1016.1hPa West 3.0mph /  4.8km/h 7.0mph /  11.3km/h 73% 0.00in /  0mm
02:19 10.3 °F /  -12.1 °C 3.4 °F /  -15.9 °C 30.01in /  1016.1hPa WNW 3.0mph /  4.8km/h 9.0mph /  14.5km/h 73% 0.00in /  0mm
02:24 10.2 °F /  -12.1 °C 3.6 °F /  -15.8 °C 30.02in /  1016.5hPa West 4.0mph /  6.4km/h 9.0mph /  14.5km/h 74% 0.00in /  0mm
02:29 10.1 °F /  -12.2 °C 3.5 °F /  -15.8 °C 30.02in /  1016.5hPa WNW 5.0mph /  8km/h 5.0mph /  8km/h 74% 0.00in /  0mm
02:34 10.0 °F /  -12.2 °C 3.4 °F /  -15.9 °C 30.02in /  1016.5hPa West 3.0mph /  4.8km/h 5.0mph /  8km/h 74% 0.00in /  0mm
02:39 9.9 °F /  -12.3 °C 3.3 °F /  -15.9 °C 30.02in /  1016.5hPa West 3.0mph /  4.8km/h 5.0mph /  8km/h 74% 0.00in /  0mm
02:44 9.8 °F /  -12.3 °C 3.2 °F /  -16 °C 30.02in /  1016.5hPa West 2.0mph /  3.2km/h 5.0mph /  8km/h 74% 0.00in /  0mm
02:49 9.6 °F /  -12.4 °C 3.0 °F /  -16.1 °C 30.02in /  1016.5hPa WNW 2.0mph /  3.2km/h 4.0mph /  6.4km/h 74% 0.00in /  0mm
02:54 9.6 °F /  -12.4 °C 3.3 °F /  -15.9 °C 30.02in /  1016.5hPa WNW 2.0mph /  3.2km/h 6.0mph /  9.7km/h 75% 0.00in /  0mm
02:59 9.5 °F /  -12.5 °C 3.2 °F /  -16 °C 30.02in /  1016.5hPa West 3.0mph /  4.8km/h 8.0mph /  12.9km/h 75% 0.00in /  0mm
03:04 9.4 °F /  -12.6 °C 3.1 °F /  -16.1 °C 30.02in /  1016.5hPa West 3.0mph /  4.8km/h 8.0mph /  12.9km/h 75% 0.00in /  0mm
03:09 9.5 °F /  -12.5 °C 3.2 °F /  -16 °C 30.02in /  1016.5hPa WSW 1.0mph /  1.6km/h 5.0mph /  8km/h 75% 0.00in /  0mm
03:14 9.4 °F /  -12.6 °C 3.1 °F /  -16.1 °C 30.02in /  1016.5hPa WNW 2.0mph /  3.2km/h 7.0mph /  11.3km/h 75% 0.00in /  0mm
03:19 9.3 °F /  -12.6 °C 3.0 °F /  -16.1 °C 30.02in /  1016.5hPa West 2.0mph /  3.2km/h 6.0mph /  9.7km/h 75% 0.00in /  0mm
03:29 9.4 °F /  -12.6 °C 3.1 °F /  -16.1 °C 30.02in /  1016.5hPa West 3.0mph /  4.8km/h 9.0mph /  14.5km/h 75% 0.00in /  0mm
03:34 9.4 °F /  -12.6 °C 3.1 °F /  -16.1 °C 30.02in /  1016.5hPa West 3.0mph /  4.8km/h 9.0mph /  14.5km/h 75% 0.00in /  0mm
03:39 9.5 °F /  -12.5 °C 3.2 °F /  -16 °C 30.02in /  1016.5hPa WSW 3.0mph /  4.8km/h 8.0mph /  12.9km/h 75% 0.00in /  0mm
03:44 9.6 °F /  -12.4 °C 3.0 °F /  -16.1 °C 30.03in /  1016.8hPa SW 3.0mph /  4.8km/h 10.0mph /  16.1km/h 74% 0.00in /  0mm
03:49 9.6 °F /  -12.4 °C 3.0 °F /  -16.1 °C 30.03in /  1016.8hPa West 3.0mph /  4.8km/h 10.0mph /  16.1km/h 74% 0.00in /  0mm
03:54 9.6 °F /  -12.4 °C 3.3 °F /  -15.9 °C 30.03in /  1016.8hPa WSW 2.0mph /  3.2km/h 6.0mph /  9.7km/h 75% 0.00in /  0mm
03:59 9.6 °F /  -12.4 °C 3.0 °F /  -16.1 °C 30.03in /  1016.8hPa WSW 3.0mph /  4.8km/h 7.0mph /  11.3km/h 74% 0.00in /  0mm
04:04 9.6 °F /  -12.4 °C 3.0 °F /  -16.1 °C 30.03in /  1016.8hPa WSW 3.0mph /  4.8km/h 7.0mph /  11.3km/h 74% 0.00in /  0mm
04:09 9.6 °F /  -12.4 °C 3.0 °F /  -16.1 °C 30.03in /  1016.8hPa West 3.0mph /  4.8km/h 7.0mph /  11.3km/h 74% 0.00in /  0mm
04:14 9.5 °F /  -12.5 °C 3.2 °F /  -16 °C 30.03in /  1016.8hPa West 2.0mph /  3.2km/h 6.0mph /  9.7km/h 75% 0.00in /  0mm
04:19 9.5 °F /  -12.5 °C 3.2 °F /  -16 °C 30.03in /  1016.8hPa West 3.0mph /  4.8km/h 8.0mph /  12.9km/h 75% 0.00in /  0mm
04:24 9.4 °F /  -12.6 °C 3.1 °F /  -16.1 °C 30.03in /  1016.8hPa WSW 3.0mph /  4.8km/h 8.0mph /  12.9km/h 75% 0.00in /  0mm
04:29 9.4 °F /  -12.6 °C 3.1 °F /  -16.1 °C 30.04in /  1017.2hPa WSW 4.0mph /  6.4km/h 7.0mph /  11.3km/h 75% 0.00in /  0mm
04:34 9.3 °F /  -12.6 °C 3.0 °F /  -16.1 °C 30.04in /  1017.2hPa West 3.0mph /  4.8km/h 7.0mph /  11.3km/h 75% 0.00in /  0mm
04:39 9.2 °F /  -12.7 °C 2.9 °F /  -16.2 °C 30.04in /  1017.2hPa West 3.0mph /  4.8km/h 7.0mph /  11.3km/h 75% 0.00in /  0mm
04:44 9.2 °F /  -12.7 °C 2.9 °F /  -16.2 °C 30.04in /  1017.2hPa West 2.0mph /  3.2km/h 7.0mph /  11.3km/h 75% 0.00in /  0mm
04:49 9.2 °F /  -12.7 °C 2.9 °F /  -16.2 °C 30.04in /  1017.2hPa West 4.0mph /  6.4km/h 7.0mph /  11.3km/h 75% 0.00in /  0mm
04:54 9.1 °F /  -12.7 °C 2.8 °F /  -16.2 °C 30.04in /  1017.2hPa West 3.0mph /  4.8km/h 7.0mph /  11.3km/h 75% 0.00in /  0mm
04:59 9.0 °F /  -12.8 °C 2.7 °F /  -16.3 °C 30.04in /  1017.2hPa West 3.0mph /  4.8km/h 6.0mph /  9.7km/h 75% 0.00in /  0mm
05:04 8.9 °F /  -12.8 °C 2.6 °F /  -16.3 °C 30.05in /  1017.5hPa West 3.0mph /  4.8km/h 6.0mph /  9.7km/h 75% 0.00in /  0mm
05:09 8.8 °F /  -12.9 °C 2.2 °F /  -16.6 °C 30.05in /  1017.5hPa West 3.0mph /  4.8km/h 6.0mph /  9.7km/h 74% 0.00in /  0mm
05:14 8.8 °F /  -12.9 °C 2.2 °F /  -16.6 °C 30.05in /  1017.5hPa WNW 5.0mph /  8km/h 5.0mph /  8km/h 74% 0.00in /  0mm
05:19 8.8 °F /  -12.9 °C 2.2 °F /  -16.6 °C 30.05in /  1017.5hPa West 3.0mph /  4.8km/h 10.0mph /  16.1km/h 74% 0.00in /  0mm
05:24 8.8 °F /  -12.9 °C 2.2 °F /  -16.6 °C 30.05in /  1017.5hPa West 3.0mph /  4.8km/h 5.0mph /  8km/h 74% 0.00in /  0mm
05:29 8.7 °F /  -12.9 °C 2.1 °F /  -16.6 °C 30.05in /  1017.5hPa WSW 3.0mph /  4.8km/h 4.0mph /  6.4km/h 74% 0.00in /  0mm
05:34 8.7 °F /  -12.9 °C 2.1 °F /  -16.6 °C 30.05in /  1017.5hPa WNW 3.0mph /  4.8km/h 5.0mph /  8km/h 74% 0.00in /  0mm
05:39 8.7 °F /  -12.9 °C 2.1 °F /  -16.6 °C 30.06in /  1017.8hPa West 3.0mph /  4.8km/h 5.0mph /  8km/h 74% 0.00in /  0mm
05:44 8.7 °F /  -12.9 °C 2.1 °F /  -16.6 °C 30.06in /  1017.8hPa WSW 3.0mph /  4.8km/h 6.0mph /  9.7km/h 74% 0.00in /  0mm
05:49 8.8 °F /  -12.9 °C 2.2 °F /  -16.6 °C 30.06in /  1017.8hPa West 8.0mph /  12.9km/h 8.0mph /  12.9km/h 74% 0.00in /  0mm
05:54 8.9 °F /  -12.8 °C 2.0 °F /  -16.7 °C 30.07in /  1018.2hPa West 5.0mph /  8km/h 9.0mph /  14.5km/h 73% 0.00in /  0mm
05:59 8.9 °F /  -12.8 °C 2.0 °F /  -16.7 °C 30.07in /  1018.2hPa WNW 4.0mph /  6.4km/h 7.0mph /  11.3km/h 73% 0.00in /  0mm
06:04 8.9 °F /  -12.8 °C 2.0 °F /  -16.7 °C 30.07in /  1018.2hPa WNW 3.0mph /  4.8km/h 8.0mph /  12.9km/h 73% 0.00in /  0mm
06:09 8.9 °F /  -12.8 °C 2.0 °F /  -16.7 °C 30.07in /  1018.2hPa West 4.0mph /  6.4km/h 11.0mph /  17.7km/h 73% 0.00in /  0mm
06:14 8.9 °F /  -12.8 °C 2.0 °F /  -16.7 °C 30.08in /  1018.5hPa West 4.0mph /  6.4km/h 11.0mph /  17.7km/h 73% 0.00in /  0mm
06:19 9.0 °F /  -12.8 °C 2.1 °F /  -16.6 °C 30.08in /  1018.5hPa WNW 4.0mph /  6.4km/h 8.0mph /  12.9km/h 73% 0.00in /  0mm
06:24 9.0 °F /  -12.8 °C 1.8 °F /  -16.8 °C 30.08in /  1018.5hPa West 5.0mph /  8km/h 10.0mph /  16.1km/h 72% 0.00in /  0mm
06:29 9.0 °F /  -12.8 °C 2.1 °F /  -16.6 °C 30.08in /  1018.5hPa WNW 7.0mph /  11.3km/h 8.0mph /  12.9km/h 73% 0.00in /  0mm
06:34 9.1 °F /  -12.7 °C 1.9 °F /  -16.7 °C 30.08in /  1018.5hPa West 7.0mph /  11.3km/h 9.0mph /  14.5km/h 72% 0.00in /  0mm
06:39 9.1 °F /  -12.7 °C 1.9 °F /  -16.7 °C 30.08in /  1018.5hPa West 5.0mph /  8km/h 8.0mph /  12.9km/h 72% 0.00in /  0mm
06:44 9.0 °F /  -12.8 °C 1.8 °F /  -16.8 °C 30.08in /  1018.5hPa NW 1.0mph /  1.6km/h 6.0mph /  9.7km/h 72% 0.00in /  0mm
06:49 8.9 °F /  -12.8 °C 1.4 °F /  -17 °C 30.08in /  1018.5hPa West 4.0mph /  6.4km/h 9.0mph /  14.5km/h 71% 0.00in /  0mm
06:54 8.8 °F /  -12.9 °C 1.3 °F /  -17.1 °C 30.07in /  1018.2hPa WNW 3.0mph /  4.8km/h 5.0mph /  8km/h 71% 0.00in /  0mm
06:59 8.6 °F /  -13 °C 1.1 °F /  -17.2 °C 30.08in /  1018.5hPa SW 2.0mph /  3.2km/h 5.0mph /  8km/h 71% 0.00in /  0mm
07:04 8.4 °F /  -13.1 °C 0.9 °F /  -17.3 °C 30.08in /  1018.5hPa West 3.0mph /  4.8km/h 5.0mph /  8km/h 71% 0.00in /  0mm
07:09 8.3 °F /  -13.2 °C 1.1 °F /  -17.2 °C 30.08in /  1018.5hPa West 4.0mph /  6.4km/h 7.0mph /  11.3km/h 72% 0.00in /  0mm
07:14 8.3 °F /  -13.2 °C 1.1 °F /  -17.2 °C 30.08in /  1018.5hPa West 3.0mph /  4.8km/h 7.0mph /  11.3km/h 72% 0.00in /  0mm
07:19 8.2 °F /  -13.2 °C 1.0 °F /  -17.2 °C 30.08in /  1018.5hPa WSW 4.0mph /  6.4km/h 6.0mph /  9.7km/h 72% 0.00in /  0mm
07:24 8.2 °F /  -13.2 °C 1.0 °F /  -17.2 °C 30.08in /  1018.5hPa West 3.0mph /  4.8km/h 6.0mph /  9.7km/h 72% 0.00in /  0mm
07:29 8.2 °F /  -13.2 °C 1.0 °F /  -17.2 °C 30.08in /  1018.5hPa WSW 4.0mph /  6.4km/h 4.0mph /  6.4km/h 72% 0.00in /  0mm
07:34 8.1 °F /  -13.3 °C 0.9 °F /  -17.3 °C 30.09in /  1018.8hPa West 1.0mph /  1.6km/h 5.0mph /  8km/h 72% 0.00in /  0mm
07:39 8.1 °F /  -13.3 °C 0.6 °F /  -17.4 °C 30.09in /  1018.8hPa West 4.0mph /  6.4km/h 6.0mph /  9.7km/h 71% 0.00in /  0mm
07:44 8.1 °F /  -13.3 °C 0.6 °F /  -17.4 °C 30.09in /  1018.8hPa West 3.0mph /  4.8km/h 8.0mph /  12.9km/h 71% 0.00in /  0mm
07:49 8.2 °F /  -13.2 °C 0.7 °F /  -17.4 °C 30.09in /  1018.8hPa WSW 6.0mph /  9.7km/h 8.0mph /  12.9km/h 71% 0.00in /  0mm
07:54 8.5 °F /  -13.1 °C 1.0 °F /  -17.2 °C 30.09in /  1018.8hPa West 5.0mph /  8km/h 16.0mph /  25.7km/h 71% 0.00in /  0mm
07:59 8.6 °F /  -13 °C 1.1 °F /  -17.2 °C 30.09in /  1018.8hPa WNW 6.0mph /  9.7km/h 16.0mph /  25.7km/h 71% 0.00in /  0mm
08:04 8.7 °F /  -12.9 °C 1.2 °F /  -17.1 °C 30.09in /  1018.8hPa WNW 6.0mph /  9.7km/h 11.0mph /  17.7km/h 71% 0.00in /  0mm
08:09 8.7 °F /  -12.9 °C 1.2 °F /  -17.1 °C 30.10in /  1019.2hPa West 2.0mph /  3.2km/h 9.0mph /  14.5km/h 71% 0.00in /  0mm
08:14 8.5 °F /  -13.1 °C 1.0 °F /  -17.2 °C 30.10in /  1019.2hPa NW 3.0mph /  4.8km/h 7.0mph /  11.3km/h 71% 0.00in /  0mm
08:19 8.5 °F /  -13.1 °C 1.0 °F /  -17.2 °C 30.10in /  1019.2hPa NW 3.0mph /  4.8km/h 9.0mph /  14.5km/h 71% 0.00in /  0mm
08:24 8.5 °F /  -13.1 °C 1.3 °F /  -17.1 °C 30.11in /  1019.5hPa WNW 4.0mph /  6.4km/h 10.0mph /  16.1km/h 72% 0.00in /  0mm
08:29 8.5 °F /  -13.1 °C 1.3 °F /  -17.1 °C 30.11in /  1019.5hPa WNW 4.0mph /  6.4km/h 10.0mph /  16.1km/h 72% 0.00in /  0mm
08:34 8.5 °F /  -13.1 °C 1.3 °F /  -17.1 °C 30.10in /  1019.2hPa WNW 4.0mph /  6.4km/h 8.0mph /  12.9km/h 72% 0.00in /  0mm
08:39 8.5 °F /  -13.1 °C 1.3 °F /  -17.1 °C 30.11in /  1019.5hPa WNW 5.0mph /  8km/h 9.0mph /  14.5km/h 72% 0.00in /  0mm
08:44 8.6 °F /  -13 °C 1.4 °F /  -17 °C 30.11in /  1019.5hPa WNW 5.0mph /  8km/h 10.0mph /  16.1km/h 72% 0.00in /  0mm
08:49 8.8 °F /  -12.9 °C 1.3 °F /  -17.1 °C 30.10in /  1019.2hPa WNW 4.0mph /  6.4km/h 10.0mph /  16.1km/h 71% 0.00in /  0mm
08:54 9.0 °F /  -12.8 °C 1.5 °F /  -16.9 °C 30.11in /  1019.5hPa WNW 7.0mph /  11.3km/h 9.0mph /  14.5km/h 71% 0.00in /  0mm
08:59 9.2 °F /  -12.7 °C 1.4 °F /  -17 °C 30.11in /  1019.5hPa West 5.0mph /  8km/h 9.0mph /  14.5km/h 70% 0.00in /  0mm
09:04 9.5 °F /  -12.5 °C 1.7 °F /  -16.8 °C 30.11in /  1019.5hPa WSW 5.0mph /  8km/h 8.0mph /  12.9km/h 70% 0.00in /  0mm
09:09 9.9 °F /  -12.3 °C 1.8 °F /  -16.8 °C 30.11in /  1019.5hPa WNW 4.0mph /  6.4km/h 6.0mph /  9.7km/h 69% 0.00in /  0mm
09:14 10.3 °F /  -12.1 °C 2.1 °F /  -16.6 °C 30.11in /  1019.5hPa WNW 5.0mph /  8km/h 7.0mph /  11.3km/h 69% 0.00in /  0mm
09:19 10.7 °F /  -11.8 °C 2.5 °F /  -16.4 °C 30.11in /  1019.5hPa WNW 3.0mph /  4.8km/h 7.0mph /  11.3km/h 69% 0.00in /  0mm
09:24 11.1 °F /  -11.6 °C 2.6 °F /  -16.3 °C 30.12in /  1019.9hPa WNW 4.0mph /  6.4km/h 11.0mph /  17.7km/h 68% 0.00in /  0mm
09:29 11.2 °F /  -11.6 °C 2.7 °F /  -16.3 °C 30.13in /  1020.2hPa WNW 5.0mph /  8km/h 11.0mph /  17.7km/h 68% 0.00in /  0mm
09:34 11.3 °F /  -11.5 °C 2.8 °F /  -16.2 °C 30.13in /  1020.2hPa West 5.0mph /  8km/h 11.0mph /  17.7km/h 68% 0.00in /  0mm
09:39 11.4 °F /  -11.4 °C 2.9 °F /  -16.2 °C 30.13in /  1020.2hPa West 5.0mph /  8km/h 10.0mph /  16.1km/h 68% 0.00in /  0mm
09:44 11.5 °F /  -11.4 °C 3.0 °F /  -16.1 °C 30.14in /  1020.5hPa West 3.0mph /  4.8km/h 10.0mph /  16.1km/h 68% 0.00in /  0mm
09:49 11.7 °F /  -11.3 °C 2.8 °F /  -16.2 °C 30.14in /  1020.5hPa West 2.0mph /  3.2km/h 5.0mph /  8km/h 67% 0.00in /  0mm
09:54 11.8 °F /  -11.2 °C 2.9 °F /  -16.2 °C 30.14in /  1020.5hPa West 3.0mph /  4.8km/h 6.0mph /  9.7km/h 67% 0.00in /  0mm
09:59 11.9 °F /  -11.2 °C 3.0 °F /  -16.1 °C 30.14in /  1020.5hPa WSW 5.0mph /  8km/h 7.0mph /  11.3km/h 67% 0.00in /  0mm
10:04 12.2 °F /  -11 °C 2.7 °F /  -16.3 °C 30.14in /  1020.5hPa West 7.0mph /  11.3km/h 8.0mph /  12.9km/h 65% 0.00in /  0mm
10:09 12.4 °F /  -10.9 °C 2.9 °F /  -16.2 °C 30.14in /  1020.5hPa WSW 2.0mph /  3.2km/h 7.0mph /  11.3km/h 65% 0.00in /  0mm
10:14 12.5 °F /  -10.8 °C 3.0 °F /  -16.1 °C 30.15in /  1020.9hPa SW 3.0mph /  4.8km/h 4.0mph /  6.4km/h 65% 0.00in /  0mm
10:19 12.6 °F /  -10.8 °C 3.4 °F /  -15.9 °C 30.16in /  1021.2hPa West 3.0mph /  4.8km/h 6.0mph /  9.7km/h 66% 0.00in /  0mm
10:24 12.9 °F /  -10.6 °C 3.7 °F /  -15.7 °C 30.16in /  1021.2hPa WNW 1.0mph /  1.6km/h 8.0mph /  12.9km/h 66% 0.00in /  0mm
10:29 13.2 °F /  -10.4 °C 4.0 °F /  -15.6 °C 30.16in /  1021.2hPa WSW 3.0mph /  4.8km/h 8.0mph /  12.9km/h 66% 0.00in /  0mm
10:34 13.6 °F /  -10.2 °C 4.7 °F /  -15.2 °C 30.17in /  1021.6hPa SW 2.0mph /  3.2km/h 4.0mph /  6.4km/h 67% 0.00in /  0mm
10:39 14.7 °F /  -9.6 °C 4.7 °F /  -15.2 °C 30.16in /  1021.2hPa West 1.0mph /  1.6km/h 3.0mph /  4.8km/h 64% 0.00in /  0mm
10:44 15.6 °F /  -9.1 °C 4.9 °F /  -15.1 °C 30.16in /  1021.2hPa West 1.0mph /  1.6km/h 5.0mph /  8km/h 62% 0.00in /  0mm
10:49 16.0 °F /  -8.9 °C 4.2 °F /  -15.4 °C 30.15in /  1020.9hPa WNW 3.0mph /  4.8km/h 7.0mph /  11.3km/h 59% 0.00in /  0mm
10:54 16.2 °F /  -8.8 °C 4.7 °F /  -15.2 °C 30.15in /  1020.9hPa West 6.0mph /  9.7km/h 7.0mph /  11.3km/h 60% 0.00in /  0mm
10:59 16.0 °F /  -8.9 °C 3.4 °F /  -15.9 °C 30.16in /  1021.2hPa West 3.0mph /  4.8km/h 9.0mph /  14.5km/h 57% 0.00in /  0mm
11:04 16.0 °F /  -8.9 °C 3.4 °F /  -15.9 °C 30.15in /  1020.9hPa WSW 5.0mph /  8km/h 10.0mph /  16.1km/h 57% 0.00in /  0mm
11:09 16.7 °F /  -8.5 °C 4.5 °F /  -15.3 °C 30.16in /  1021.2hPa West 5.0mph /  8km/h 11.0mph /  17.7km/h 58% 0.00in /  0mm
11:14 16.9 °F /  -8.4 °C 4.7 °F /  -15.2 °C 30.16in /  1021.2hPa West 7.0mph /  11.3km/h 9.0mph /  14.5km/h 58% 0.00in /  0mm
11:19 17.1 °F /  -8.3 °C 4.1 °F /  -15.5 °C 30.16in /  1021.2hPa WSW 4.0mph /  6.4km/h 11.0mph /  17.7km/h 56% 0.00in /  0mm
11:24 17.3 °F /  -8.2 °C 3.9 °F /  -15.6 °C 30.17in /  1021.6hPa NW 5.0mph /  8km/h 13.0mph /  20.9km/h 55% 0.00in /  0mm
11:29 17.2 °F /  -8.2 °C 3.4 °F /  -15.9 °C 30.17in /  1021.6hPa West 6.0mph /  9.7km/h 13.0mph /  20.9km/h 54% 0.00in /  0mm
11:34 17.2 °F /  -8.2 °C 4.2 °F /  -15.4 °C 30.16in /  1021.2hPa West 6.0mph /  9.7km/h 13.0mph /  20.9km/h 56% 0.00in /  0mm
11:39 16.9 °F /  -8.4 °C 3.9 °F /  -15.6 °C 30.16in /  1021.2hPa West 6.0mph /  9.7km/h 13.0mph /  20.9km/h 56% 0.00in /  0mm
11:44 16.8 °F /  -8.4 °C 3.8 °F /  -15.7 °C 30.15in /  1020.9hPa West 7.0mph /  11.3km/h 13.0mph /  20.9km/h 56% 0.00in /  0mm
11:49 16.8 °F /  -8.4 °C 3.8 °F /  -15.7 °C 30.15in /  1020.9hPa West 6.0mph /  9.7km/h 13.0mph /  20.9km/h 56% 0.00in /  0mm
11:54 16.6 °F /  -8.6 °C 3.6 °F /  -15.8 °C 30.15in /  1020.9hPa West 6.0mph /  9.7km/h 12.0mph /  19.3km/h 56% 0.00in /  0mm
11:59 16.7 °F /  -8.5 °C 3.7 °F /  -15.7 °C 30.15in /  1020.9hPa WNW 4.0mph /  6.4km/h 10.0mph /  16.1km/h 56% 0.00in /  0mm
12:04 16.8 °F /  -8.4 °C 3.4 °F /  -15.9 °C 30.15in /  1020.9hPa West 5.0mph /  8km/h 10.0mph /  16.1km/h 55% 0.00in /  0mm
12:09 17.1 °F /  -8.3 °C 4.1 °F /  -15.5 °C 30.15in /  1020.9hPa West 9.0mph /  14.5km/h 10.0mph /  16.1km/h 56% 0.00in /  0mm
12:14 17.5 °F /  -8.1 °C 4.5 °F /  -15.3 °C 30.15in /  1020.9hPa WNW 8.0mph /  12.9km/h 12.0mph /  19.3km/h 56% 0.00in /  0mm
12:19 17.5 °F /  -8.1 °C 4.1 °F /  -15.5 °C 30.15in /  1020.9hPa SW 9.0mph /  14.5km/h 12.0mph /  19.3km/h 55% 0.00in /  0mm
12:24 17.6 °F /  -8 °C 4.2 °F /  -15.4 °C 30.15in /  1020.9hPa West 4.0mph /  6.4km/h 12.0mph /  19.3km/h 55% 0.00in /  0mm
12:29 17.6 °F /  -8 °C 4.2 °F /  -15.4 °C 30.15in /  1020.9hPa WSW 7.0mph /  11.3km/h 16.0mph /  25.7km/h 55% 0.00in /  0mm
12:34 17.6 °F /  -8 °C 4.2 °F /  -15.4 °C 30.15in /  1020.9hPa WNW 6.0mph /  9.7km/h 13.0mph /  20.9km/h 55% 0.00in /  0mm
12:39 17.6 °F /  -8 °C 4.2 °F /  -15.4 °C 30.14in /  1020.5hPa West 7.0mph /  11.3km/h 13.0mph /  20.9km/h 55% 0.00in /  0mm
12:44 17.5 °F /  -8.1 °C 3.7 °F /  -15.7 °C 30.14in /  1020.5hPa West 7.0mph /  11.3km/h 13.0mph /  20.9km/h 54% 0.00in /  0mm
12:49 17.5 °F /  -8.1 °C 4.1 °F /  -15.5 °C 30.14in /  1020.5hPa West 7.0mph /  11.3km/h 13.0mph /  20.9km/h 55% 0.00in /  0mm
12:54 17.4 °F /  -8.1 °C 3.6 °F /  -15.8 °C 30.14in /  1020.5hPa WNW 7.0mph /  11.3km/h 11.0mph /  17.7km/h 54% 0.00in /  0mm
12:59 17.5 °F /  -8.1 °C 4.8 °F /  -15.1 °C 30.14in /  1020.5hPa West 8.0mph /  12.9km/h 15.0mph /  24.1km/h 57% 0.00in /  0mm
13:04 17.9 °F /  -7.8 °C 4.4 °F /  -15.3 °C 30.14in /  1020.5hPa NW 16.0mph /  25.7km/h 16.0mph /  25.7km/h 55% 0.00in /  0mm
13:09 17.6 °F /  -8 °C 4.9 °F /  -15.1 °C 30.15in /  1020.9hPa West 7.0mph /  11.3km/h 16.0mph /  25.7km/h 57% 0.00in /  0mm
13:14 17.9 °F /  -7.8 °C 4.8 °F /  -15.1 °C 30.15in /  1020.9hPa West 8.0mph /  12.9km/h 16.0mph /  25.7km/h 56% 0.00in /  0mm
13:19 17.9 °F /  -7.8 °C 4.8 °F /  -15.1 °C 30.15in /  1020.9hPa West 8.0mph /  12.9km/h 15.0mph /  24.1km/h 56% 0.00in /  0mm
13:24 17.9 °F /  -7.8 °C 4.4 °F /  -15.3 °C 30.15in /  1020.9hPa West 6.0mph /  9.7km/h 15.0mph /  24.1km/h 55% 0.00in /  0mm
13:29 17.9 °F /  -7.8 °C 4.8 °F /  -15.1 °C 30.15in /  1020.9hPa West 4.0mph /  6.4km/h 11.0mph /  17.7km/h 56% 0.00in /  0mm
13:34 18.1 °F /  -7.7 °C 5.4 °F /  -14.8 °C 30.15in /  1020.9hPa West 7.0mph /  11.3km/h 13.0mph /  20.9km/h 57% 0.00in /  0mm
13:39 18.1 °F /  -7.7 °C 5.0 °F /  -15 °C 30.15in /  1020.9hPa West 10.0mph /  16.1km/h 14.0mph /  22.5km/h 56% 0.00in /  0mm
13:44 18.1 °F /  -7.7 °C 5.4 °F /  -14.8 °C 30.15in /  1020.9hPa West 8.0mph /  12.9km/h 17.0mph /  27.4km/h 57% 0.00in /  0mm
13:49 18.4 °F /  -7.6 °C 5.7 °F /  -14.6 °C 30.15in /  1020.9hPa West 8.0mph /  12.9km/h 17.0mph /  27.4km/h 57% 0.00in /  0mm
13:54 18.7 °F /  -7.4 °C 6.0 °F /  -14.4 °C 30.15in /  1020.9hPa West 8.0mph /  12.9km/h 15.0mph /  24.1km/h 57% 0.00in /  0mm
13:59 18.8 °F /  -7.3 °C 5.7 °F /  -14.6 °C 30.15in /  1020.9hPa West 5.0mph /  8km/h 18.0mph /  29km/h 56% 0.00in /  0mm
14:04 18.9 °F /  -7.3 °C 6.2 °F /  -14.3 °C 30.15in /  1020.9hPa WSW 15.0mph /  24.1km/h 15.0mph /  24.1km/h 57% 0.00in /  0mm
14:09 18.6 °F /  -7.4 °C 5.9 °F /  -14.5 °C 30.16in /  1021.2hPa WSW 11.0mph /  17.7km/h 18.0mph /  29km/h 57% 0.00in /  0mm
14:14 18.6 °F /  -7.4 °C 6.3 °F /  -14.3 °C 30.15in /  1020.9hPa WSW 9.0mph /  14.5km/h 21.0mph /  33.8km/h 58% 0.00in /  0mm
14:19 18.4 °F /  -7.6 °C 5.3 °F /  -14.8 °C 30.15in /  1020.9hPa WSW 8.0mph /  12.9km/h 21.0mph /  33.8km/h 56% 0.00in /  0mm
14:24 18.7 °F /  -7.4 °C 5.2 °F /  -14.9 °C 30.15in /  1020.9hPa WSW 6.0mph /  9.7km/h 14.0mph /  22.5km/h 55% 0.00in /  0mm
14:29 18.5 °F /  -7.5 °C 5.4 °F /  -14.8 °C 30.15in /  1020.9hPa West 11.0mph /  17.7km/h 11.0mph /  17.7km/h 56% 0.00in /  0mm
14:34 18.3 °F /  -7.6 °C 5.2 °F /  -14.9 °C 30.15in /  1020.9hPa West 5.0mph /  8km/h 15.0mph /  24.1km/h 56% 0.00in /  0mm
14:39 18.5 °F /  -7.5 °C 5.4 °F /  -14.8 °C 30.15in /  1020.9hPa SW 6.0mph /  9.7km/h 12.0mph /  19.3km/h 56% 0.00in /  0mm
14:44 18.9 °F /  -7.3 °C 5.8 °F /  -14.6 °C 30.15in /  1020.9hPa West 5.0mph /  8km/h 12.0mph /  19.3km/h 56% 0.00in /  0mm
14:49 18.6 °F /  -7.4 °C 6.3 °F /  -14.3 °C 30.15in /  1020.9hPa SW 12.0mph /  19.3km/h 14.0mph /  22.5km/h 58% 0.00in /  0mm
14:54 18.3 °F /  -7.6 °C 6.0 °F /  -14.4 °C 30.16in /  1021.2hPa West 8.0mph /  12.9km/h 16.0mph /  25.7km/h 58% 0.00in /  0mm
14:59 18.2 °F /  -7.7 °C 5.9 °F /  -14.5 °C 30.16in /  1021.2hPa WNW 4.0mph /  6.4km/h 15.0mph /  24.1km/h 58% 0.00in /  0mm
15:04 17.8 °F /  -7.9 °C 5.9 °F /  -14.5 °C 30.17in /  1021.6hPa West 4.0mph /  6.4km/h 14.0mph /  22.5km/h 59% 0.00in /  0mm
15:09 17.4 °F /  -8.1 °C 5.9 °F /  -14.5 °C 30.17in /  1021.6hPa West 6.0mph /  9.7km/h 15.0mph /  24.1km/h 60% 0.00in /  0mm
15:14 17.2 °F /  -8.2 °C 6.0 °F /  -14.4 °C 30.17in /  1021.6hPa West 7.0mph /  11.3km/h 15.0mph /  24.1km/h 61% 0.00in /  0mm
15:19 17.4 °F /  -8.1 °C 6.6 °F /  -14.1 °C 30.18in /  1021.9hPa West 5.0mph /  8km/h 13.0mph /  20.9km/h 62% 0.00in /  0mm
15:24 17.3 °F /  -8.2 °C 6.5 °F /  -14.2 °C 30.18in /  1021.9hPa West 6.0mph /  9.7km/h 14.0mph /  22.5km/h 62% 0.00in /  0mm
15:29 17.3 °F /  -8.2 °C 6.5 °F /  -14.2 °C 30.18in /  1021.9hPa West 6.0mph /  9.7km/h 14.0mph /  22.5km/h 62% 0.00in /  0mm
15:34 17.2 °F /  -8.2 °C 6.4 °F /  -14.2 °C 30.19in /  1022.2hPa West 9.0mph /  14.5km/h 12.0mph /  19.3km/h 62% 0.00in /  0mm
15:39 17.2 °F /  -8.2 °C 7.4 °F /  -13.7 °C 30.19in /  1022.2hPa WSW 4.0mph /  6.4km/h 12.0mph /  19.3km/h 65% 0.00in /  0mm
15:44 17.2 °F /  -8.2 °C 7.1 °F /  -13.8 °C 30.19in /  1022.2hPa West 8.0mph /  12.9km/h 11.0mph /  17.7km/h 64% 0.00in /  0mm
15:49 17.1 °F /  -8.3 °C 7.3 °F /  -13.7 °C 30.19in /  1022.2hPa West 14.0mph /  22.5km/h 14.0mph /  22.5km/h 65% 0.00in /  0mm
15:54 17.0 °F /  -8.3 °C 7.3 °F /  -13.7 °C 30.19in /  1022.2hPa NW 6.0mph /  9.7km/h 14.0mph /  22.5km/h 65% 0.00in /  0mm
15:59 16.9 °F /  -8.4 °C 7.2 °F /  -13.8 °C 30.19in /  1022.2hPa WSW 8.0mph /  12.9km/h 10.0mph /  16.1km/h 65% 0.00in /  0mm
16:04 16.9 °F /  -8.4 °C 7.2 °F /  -13.8 °C 30.19in /  1022.2hPa West 8.0mph /  12.9km/h 9.0mph /  14.5km/h 65% 0.00in /  0mm
16:09 16.9 °F /  -8.4 °C 7.2 °F /  -13.8 °C 30.19in /  1022.2hPa WSW 4.0mph /  6.4km/h 8.0mph /  12.9km/h 65% 0.00in /  0mm
16:14 16.9 °F /  -8.4 °C 7.2 °F /  -13.8 °C 30.19in /  1022.2hPa West 4.0mph /  6.4km/h 9.0mph /  14.5km/h 65% 0.00in /  0mm
16:19 16.7 °F /  -8.5 °C 7.0 °F /  -13.9 °C 30.20in /  1022.6hPa West 6.0mph /  9.7km/h 12.0mph /  19.3km/h 65% 0.00in /  0mm
16:24 16.6 °F /  -8.6 °C 6.9 °F /  -13.9 °C 30.20in /  1022.6hPa West 6.0mph /  9.7km/h 12.0mph /  19.3km/h 65% 0.00in /  0mm
16:29 16.4 °F /  -8.7 °C 6.3 °F /  -14.3 °C 30.20in /  1022.6hPa West 6.0mph /  9.7km/h 11.0mph /  17.7km/h 64% 0.00in /  0mm
16:34 16.2 °F /  -8.8 °C 6.5 °F /  -14.2 °C 30.20in /  1022.6hPa West 6.0mph /  9.7km/h 10.0mph /  16.1km/h 65% 0.00in /  0mm
16:44 16.2 °F /  -8.8 °C 5.8 °F /  -14.6 °C 30.20in /  1022.6hPa NW 5.0mph /  8km/h 13.0mph /  20.9km/h 63% 0.00in /  0mm
16:49 16.1 °F /  -8.8 °C 5.7 °F /  -14.6 °C 30.21in /  1022.9hPa West 6.0mph /  9.7km/h 12.0mph /  19.3km/h 63% 0.00in /  0mm
16:54 15.8 °F /  -9 °C 5.1 °F /  -14.9 °C 30.21in /  1022.9hPa West 6.0mph /  9.7km/h 15.0mph /  24.1km/h 62% 0.00in /  0mm
16:59 15.6 °F /  -9.1 °C 4.9 °F /  -15.1 °C 30.21in /  1022.9hPa West 8.0mph /  12.9km/h 13.0mph /  20.9km/h 62% 0.00in /  0mm
17:04 15.3 °F /  -9.3 °C 4.6 °F /  -15.2 °C 30.22in /  1023.2hPa WNW 3.0mph /  4.8km/h 12.0mph /  19.3km/h 62% 0.00in /  0mm
17:09 15.0 °F /  -9.4 °C 4.3 °F /  -15.4 °C 30.22in /  1023.2hPa WNW 4.0mph /  6.4km/h 13.0mph /  20.9km/h 62% 0.00in /  0mm
17:14 14.9 °F /  -9.5 °C 3.9 °F /  -15.6 °C 30.22in /  1023.2hPa WSW 10.0mph /  16.1km/h 12.0mph /  19.3km/h 61% 0.00in /  0mm
17:19 14.7 °F /  -9.6 °C 3.7 °F /  -15.7 °C 30.22in /  1023.2hPa West 6.0mph /  9.7km/h 13.0mph /  20.9km/h 61% 0.00in /  0mm
17:24 14.5 °F /  -9.7 °C 3.5 °F /  -15.8 °C 30.23in /  1023.6hPa West 5.0mph /  8km/h 13.0mph /  20.9km/h 61% 0.00in /  0mm
17:29 14.4 °F /  -9.8 °C 3.4 °F /  -15.9 °C 30.23in /  1023.6hPa West 4.0mph /  6.4km/h 13.0mph /  20.9km/h 61% 0.00in /  0mm
17:34 14.3 °F /  -9.8 °C 2.9 °F /  -16.2 °C 30.23in /  1023.6hPa West 6.0mph /  9.7km/h 13.0mph /  20.9km/h 60% 0.00in /  0mm
17:39 14.1 °F /  -9.9 °C 3.1 °F /  -16.1 °C 30.24in /  1023.9hPa WNW 7.0mph /  11.3km/h 12.0mph /  19.3km/h 61% 0.00in /  0mm
17:44 14.0 °F /  -10 °C 3.0 °F /  -16.1 °C 30.24in /  1023.9hPa West 6.0mph /  9.7km/h 12.0mph /  19.3km/h 61% 0.00in /  0mm
17:49 13.8 °F /  -10.1 °C 2.8 °F /  -16.2 °C 30.25in /  1024.3hPa West 5.0mph /  8km/h 12.0mph /  19.3km/h 61% 0.00in /  0mm
17:54 13.7 °F /  -10.2 °C 3.1 °F /  -16.1 °C 30.25in /  1024.3hPa WNW 2.0mph /  3.2km/h 10.0mph /  16.1km/h 62% 0.00in /  0mm
17:59 13.5 °F /  -10.3 °C 2.9 °F /  -16.2 °C 30.25in /  1024.3hPa West 4.0mph /  6.4km/h 10.0mph /  16.1km/h 62% 0.00in /  0mm
18:04 13.4 °F /  -10.3 °C 3.1 °F /  -16.1 °C 30.25in /  1024.3hPa SW 2.0mph /  3.2km/h 6.0mph /  9.7km/h 63% 0.00in /  0mm
18:09 13.2 °F /  -10.4 °C 2.9 °F /  -16.2 °C 30.26in /  1024.6hPa West 1.0mph /  1.6km/h 7.0mph /  11.3km/h 63% 0.00in /  0mm
18:14 13.2 °F /  -10.4 °C 2.9 °F /  -16.2 °C 30.26in /  1024.6hPa NW 3.0mph /  4.8km/h 8.0mph /  12.9km/h 63% 0.00in /  0mm
18:19 13.0 °F /  -10.6 °C 3.1 °F /  -16.1 °C 30.26in /  1024.6hPa WNW 5.0mph /  8km/h 8.0mph /  12.9km/h 64% 0.00in /  0mm
18:24 12.8 °F /  -10.7 °C 2.9 °F /  -16.2 °C 30.26in /  1024.6hPa WNW 3.0mph /  4.8km/h 8.0mph /  12.9km/h 64% 0.00in /  0mm
18:29 12.7 °F /  -10.7 °C 2.8 °F /  -16.2 °C 30.26in /  1024.6hPa West 6.0mph /  9.7km/h 10.0mph /  16.1km/h 64% 0.00in /  0mm
18:34 12.7 °F /  -10.7 °C 2.8 °F /  -16.2 °C 30.27in /  1024.9hPa West 5.0mph /  8km/h 10.0mph /  16.1km/h 64% 0.00in /  0mm
18:39 12.6 °F /  -10.8 °C 2.7 °F /  -16.3 °C 30.27in /  1024.9hPa West 5.0mph /  8km/h 9.0mph /  14.5km/h 64% 0.00in /  0mm
18:44 12.6 °F /  -10.8 °C 2.7 °F /  -16.3 °C 30.28in /  1025.3hPa West 5.0mph /  8km/h 12.0mph /  19.3km/h 64% 0.00in /  0mm
18:49 12.5 °F /  -10.8 °C 2.6 °F /  -16.3 °C 30.28in /  1025.3hPa West 5.0mph /  8km/h 12.0mph /  19.3km/h 64% 0.00in /  0mm
18:54 12.5 °F /  -10.8 °C 2.6 °F /  -16.3 °C 30.28in /  1025.3hPa West 5.0mph /  8km/h 12.0mph /  19.3km/h 64% 0.00in /  0mm
18:59 12.4 °F /  -10.9 °C 2.5 °F /  -16.4 °C 30.28in /  1025.3hPa West 2.0mph /  3.2km/h 8.0mph /  12.9km/h 64% 0.00in /  0mm
19:04 12.3 °F /  -10.9 °C 2.4 °F /  -16.4 °C 30.28in /  1025.3hPa WNW 1.0mph /  1.6km/h 5.0mph /  8km/h 64% 0.00in /  0mm
19:09 12.2 °F /  -11 °C 2.7 °F /  -16.3 °C 30.28in /  1025.3hPa West 5.0mph /  8km/h 6.0mph /  9.7km/h 65% 0.00in /  0mm
19:14 12.1 °F /  -11.1 °C 2.6 °F /  -16.3 °C 30.28in /  1025.3hPa WNW 3.0mph /  4.8km/h 6.0mph /  9.7km/h 65% 0.00in /  0mm
19:19 11.9 °F /  -11.2 °C 2.4 °F /  -16.4 °C 30.29in /  1025.6hPa West 4.0mph /  6.4km/h 7.0mph /  11.3km/h 65% 0.00in /  0mm
19:24 11.9 °F /  -11.2 °C 2.0 °F /  -16.7 °C 30.29in /  1025.6hPa WNW 5.0mph /  8km/h 9.0mph /  14.5km/h 64% 0.00in /  0mm
19:29 11.9 °F /  -11.2 °C 2.0 °F /  -16.7 °C 30.29in /  1025.6hPa WSW 5.0mph /  8km/h 10.0mph /  16.1km/h 64% 0.00in /  0mm
19:34 11.9 °F /  -11.2 °C 2.0 °F /  -16.7 °C 30.30in /  1026hPa WNW 3.0mph /  4.8km/h 6.0mph /  9.7km/h 64% 0.00in /  0mm
19:39 11.9 °F /  -11.2 °C 2.0 °F /  -16.7 °C 30.30in /  1026hPa West 3.0mph /  4.8km/h 5.0mph /  8km/h 64% 0.00in /  0mm
19:44 11.7 °F /  -11.3 °C 1.9 °F /  -16.7 °C 30.30in /  1026hPa WNW 3.0mph /  4.8km/h 8.0mph /  12.9km/h 64% 0.00in /  0mm
19:49 11.7 °F /  -11.3 °C 1.9 °F /  -16.7 °C 30.30in /  1026hPa WNW 3.0mph /  4.8km/h 8.0mph /  12.9km/h 64% 0.00in /  0mm
19:54 11.6 °F /  -11.3 °C 1.8 °F /  -16.8 °C 30.31in /  1026.3hPa WNW 3.0mph /  4.8km/h 8.0mph /  12.9km/h 64% 0.00in /  0mm
19:59 11.4 °F /  -11.4 °C 1.6 °F /  -16.9 °C 30.31in /  1026.3hPa WNW 3.0mph /  4.8km/h 8.0mph /  12.9km/h 64% 0.00in /  0mm
20:04 11.4 °F /  -11.4 °C 1.6 °F /  -16.9 °C 30.31in /  1026.3hPa NW 1.0mph /  1.6km/h 8.0mph /  12.9km/h 64% 0.00in /  0mm
20:09 11.3 °F /  -11.5 °C 1.5 °F /  -16.9 °C 30.30in /  1026hPa West 4.0mph /  6.4km/h 5.0mph /  8km/h 64% 0.00in /  0mm
20:14 11.2 °F /  -11.6 °C 1.4 °F /  -17 °C 30.30in /  1026hPa NW 3.0mph /  4.8km/h 9.0mph /  14.5km/h 64% 0.00in /  0mm
20:19 11.2 °F /  -11.6 °C 1.4 °F /  -17 °C 30.31in /  1026.3hPa WNW 3.0mph /  4.8km/h 9.0mph /  14.5km/h 64% 0.00in /  0mm
20:24 11.2 °F /  -11.6 °C 1.4 °F /  -17 °C 30.31in /  1026.3hPa WNW 4.0mph /  6.4km/h 8.0mph /  12.9km/h 64% 0.00in /  0mm
20:29 11.1 °F /  -11.6 °C 1.3 °F /  -17.1 °C 30.30in /  1026hPa WNW 4.0mph /  6.4km/h 8.0mph /  12.9km/h 64% 0.00in /  0mm
20:34 11.1 °F /  -11.6 °C 1.3 °F /  -17.1 °C 30.30in /  1026hPa WNW 4.0mph /  6.4km/h 7.0mph /  11.3km/h 64% 0.00in /  0mm
20:39 11.1 °F /  -11.6 °C 1.3 °F /  -17.1 °C 30.30in /  1026hPa WNW 5.0mph /  8km/h 7.0mph /  11.3km/h 64% 0.00in /  0mm
20:44 10.9 °F /  -11.7 °C 1.1 °F /  -17.2 °C 30.30in /  1026hPa West 3.0mph /  4.8km/h 5.0mph /  8km/h 64% 0.00in /  0mm
20:49 10.9 °F /  -11.7 °C 1.1 °F /  -17.2 °C 30.30in /  1026hPa West 3.0mph /  4.8km/h 5.0mph /  8km/h 64% 0.00in /  0mm
20:54 10.8 °F /  -11.8 °C 1.0 °F /  -17.2 °C 30.31in /  1026.3hPa West 2.0mph /  3.2km/h 5.0mph /  8km/h 64% 0.00in /  0mm
20:59 10.7 °F /  -11.8 °C 1.2 °F /  -17.1 °C 30.31in /  1026.3hPa West 2.0mph /  3.2km/h 5.0mph /  8km/h 65% 0.00in /  0mm
21:04 10.6 °F /  -11.9 °C 1.1 °F /  -17.2 °C 30.31in /  1026.3hPa West 2.0mph /  3.2km/h 5.0mph /  8km/h 65% 0.00in /  0mm
21:09 10.5 °F /  -11.9 °C 1.0 °F /  -17.2 °C 30.31in /  1026.3hPa West 1.0mph /  1.6km/h 3.0mph /  4.8km/h 65% 0.00in /  0mm
21:14 10.5 °F /  -11.9 °C 1.0 °F /  -17.2 °C 30.31in /  1026.3hPa WSW 1.0mph /  1.6km/h 3.0mph /  4.8km/h 65% 0.00in /  0mm
21:19 10.4 °F /  -12 °C 1.0 °F /  -17.2 °C 30.31in /  1026.3hPa Calm   1.0mph /  1.6km/h 65% 0.00in /  0mm
21:24 10.1 °F /  -12.2 °C 0.3 °F /  -17.6 °C 30.31in /  1026.3hPa Calm     64% 0.00in /  0mm
21:29 10.0 °F /  -12.2 °C 0.2 °F /  -17.7 °C 30.31in /  1026.3hPa Calm     64% 0.00in /  0mm
21:34 9.7 °F /  -12.4 °C 0.0 °F /  -17.8 °C 30.31in /  1026.3hPa Calm     64% 0.00in /  0mm
21:39 9.2 °F /  -12.7 °C 0.1 °F /  -17.7 °C 30.31in /  1026.3hPa Calm     66% 0.00in /  0mm
21:44 8.9 °F /  -12.8 °C -0.2 °F /  -17.9 °C 30.31in /  1026.3hPa Calm     66% 0.00in /  0mm
21:49 8.6 °F /  -13 °C -0.4 °F /  -18 °C 30.31in /  1026.3hPa Calm     66% 0.00in /  0mm
21:54 8.3 °F /  -13.2 °C -0.4 °F /  -18 °C 30.31in /  1026.3hPa Calm     67% 0.00in /  0mm
21:59 8.0 °F /  -13.3 °C -0.4 °F /  -18 °C 30.31in /  1026.3hPa Calm     68% 0.00in /  0mm
22:04 7.7 °F /  -13.5 °C -0.4 °F /  -18 °C 30.31in /  1026.3hPa Calm     69% 0.00in /  0mm
22:09 7.5 °F /  -13.6 °C -0.6 °F /  -18.1 °C 30.32in /  1026.6hPa Calm     69% 0.00in /  0mm
22:14 7.3 °F /  -13.7 °C -0.7 °F /  -18.2 °C 30.32in /  1026.6hPa Calm     69% 0.00in /  0mm
22:19 7.1 °F /  -13.8 °C -0.6 °F /  -18.1 °C 30.32in /  1026.6hPa Calm     70% 0.00in /  0mm
22:24 7.0 °F /  -13.9 °C -0.7 °F /  -18.2 °C 30.32in /  1026.6hPa Calm     70% 0.00in /  0mm
22:29 6.7 °F /  -14.1 °C -1.3 °F /  -18.5 °C 30.33in /  1027hPa Calm     69% 0.00in /  0mm
22:34 6.5 °F /  -14.2 °C -1.2 °F /  -18.4 °C 30.33in /  1027hPa Calm     70% 0.00in /  0mm
22:39 6.3 °F /  -14.3 °C -1.1 °F /  -18.4 °C 30.33in /  1027hPa Calm     71% 0.00in /  0mm
22:44 6.1 °F /  -14.4 °C -1.3 °F /  -18.5 °C 30.33in /  1027hPa Calm     71% 0.00in /  0mm
22:49 5.9 °F /  -14.5 °C -1.2 °F /  -18.4 °C 30.33in /  1027hPa Calm     72% 0.00in /  0mm
22:54 5.8 °F /  -14.6 °C -1.3 °F /  -18.5 °C 30.33in /  1027hPa Calm     72% 0.00in /  0mm
22:59 5.8 °F /  -14.6 °C -0.7 °F /  -18.2 °C 30.34in /  1027.3hPa Calm     74% 0.00in /  0mm
23:04 5.8 °F /  -14.6 °C -0.4 °F /  -18 °C 30.34in /  1027.3hPa Calm     75% 0.00in /  0mm
23:09 6.0 °F /  -14.4 °C 0.1 °F /  -17.7 °C 30.34in /  1027.3hPa Calm     76% 0.00in /  0mm
23:14 6.3 °F /  -14.3 °C 0.6 °F /  -17.4 °C 30.34in /  1027.3hPa Calm     77% 0.00in /  0mm
23:19 6.7 °F /  -14.1 °C 1.0 °F /  -17.2 °C 30.34in /  1027.3hPa Calm     77% 0.00in /  0mm
23:24 7.2 °F /  -13.8 °C 1.5 °F /  -16.9 °C 30.34in /  1027.3hPa Calm     77% 0.00in /  0mm
23:29 7.7 °F /  -13.5 °C 2.0 °F /  -16.7 °C 30.34in /  1027.3hPa Calm     77% 0.00in /  0mm
23:34 8.1 °F /  -13.3 °C 2.4 °F /  -16.4 °C 30.34in /  1027.3hPa WSW 1.0mph /  1.6km/h 2.0mph /  3.2km/h 77% 0.00in /  0mm
23:39 8.7 °F /  -12.9 °C 2.7 °F /  -16.3 °C 30.34in /  1027.3hPa Calm   2.0mph /  3.2km/h 76% 0.00in /  0mm
23:44 9.0 °F /  -12.8 °C 2.7 °F /  -16.3 °C 30.34in /  1027.3hPa Calm   3.0mph /  4.8km/h 75% 0.00in /  0mm
23:49 9.2 °F /  -12.7 °C 2.9 °F /  -16.2 °C 30.34in /  1027.3hPa WSW 1.0mph /  1.6km/h 3.0mph /  4.8km/h 75% 0.00in /  0mm
23:54 9.4 °F /  -12.6 °C 2.8 °F /  -16.2 °C 30.34in /  1027.3hPa West 1.0mph /  1.6km/h 3.0mph /  4.8km/h 74% 0.00in /  0mm
23:59 9.5 °F /  -12.5 °C 2.9 °F /  -16.2 °C 30.34in /  1027.3hPa Calm   3.0mph /  4.8km/h 74% 0.00in /  0mm
Buffalo, New York, USA
Compliments of Weather Underground - 2.5 mb